Airport View

Enter AWOS ICAO identifier for current METAR.

ex. KFNL

KEQY 280053Z AUTO 22004KT 10SM CLR 19/18 A2996 RMK AO2 SLP149 T01940183

28 Sep 2020 01:10

Frequency: 135.775

Phone: 704-283-5185

Other Area AWOS: KCLT - KLKR - KUZA - KJQF

TAF KCLT 272342Z 2800/2906 20004KT P6SM FEW030 BKN200 FM280700 20004KT 6SM BR BKN008 TEMPO 2809/2812 4SM BR BKN004 FM281500 20007KT P6SM VCSH SCT015 BKN025 PROB30 2817/2823 4SM TSRA BR OVC010CB FM282300 18006KT P6SM VCSH BKN040 FM290300 17006KT 6SM BR VCSH SCT005 BKN012